St. Louis Express — WDD3825 — position and weather

sailwx.info

Track history (hours):
 
Tides and Currents Weather Stations Pressure Air Temp Water Temp Dewpoint Dewpoint Depression Visibility Wind Speed Wind Dir Waves Ship Positions

St. Louis Express

Owner: Marine Transport Management, Inc C/O Crowley Ship Management, Jacksonville, FL. More information available from US FCC via Universal Licensing System.

Last reported at 2016-May-25 18:00 UTC. Time now 2016-May-26 02:51 UTC.
Position N 48°36' W 013°12'.

Type: Ship (hazmat cat D). MMSI: 367136680.

Wind from 070 at 22 knots

Waves 1.0 meters (3 feet), 2 second period

Barometer 1012.7 mb
Air temperature 13.2 ° C
Visibility: greater than 5.4 NM
Dewpoint 11.5 ° C
Water temperature 15.0 ° C

Date/timePositionNaut miles runAvg speedWind from/ knotsBaromVisibWave heightAir tempDewpointWater temp
2016-May-25 18:00N 48°36' W 013°12'14019.9 070 / 221012.7 5.4 1.013.211.515.0
2016-May-25 11:00N 48°54' W 009°42'2813.8 090 / 281013.9 2.2 2.014.011.215.0
2016-May-25 09:00N 48°54' W 009°00'16818.9 090 / 241014.1 2.2 2.514.011.215.0
2016-May-25 00:06N 49°29' W 004°48'1620.2
2016-May-24 23:18N 49°35' W 004°25'1519.6
2016-May-24 22:33N 49°41' W 004°04'1918.7
2016-May-24 21:33N 49°48' W 003°38'1817.8
2016-May-24 20:33N 49°55' W 003°13'1817.5
2016-May-24 19:33N 50°01' W 002°47'6019.4
2016-May-24 16:30N 50°24' W 001°21'1919.8
2016-May-24 15:33N 50°36' W 000°59'10 9.6
2016-May-24 14:34N 50°45' W 001°07'1010.0
2016-May-24 13:33N 50°51' W 001°20'6 6.0
2016-May-24 12:33N 50°54' W 001°27'0 0.1
2016-May-24 11:31N 50°54' W 001°27'0 0.0
2016-May-24 10:31N 50°54' W 001°27'0 0.0
2016-May-24 09:28N 50°54' W 001°27'0 0.0
2016-May-24 08:31N 50°54' W 001°27'0 0.0
2016-May-24 07:31N 50°54' W 001°27'0 0.0
2016-May-24 06:31N 50°54' W 001°27'0 0.0
2016-May-24 05:31N 50°54' W 001°27'0 0.0
2016-May-24 04:31N 50°54' W 001°27'0 0.0
2016-May-24 03:25N 50°54' W 001°27'4 4.3
2016-May-24 02:34N 50°52' W 001°23'1010.4
2016-May-24 01:33N 50°46' W 001°10'1111.2
2016-May-24 00:33N 50°39' W 000°55'1615.8
2016-May-23 23:34N 50°34' W 000°32'1817.5
2016-May-23 22:34N 50°31' W 000°04'1816.7
2016-May-23 21:30N 50°35' E 000°23'2017.9
2016-May-23 20:22N 50°44' E 000°51'1620.2
2016-May-23 19:34N 50°53' E 001°13'2121.3
2016-May-23 18:33N 51°08' E 001°37'3819.0
2016-May-23 16:34N 51°38' E 002°14'1917.5
2016-May-23 15:29N 51°52' E 002°34'3417.4
2016-May-23 13:33N 52°19' E 003°08'9318.7
2016-May-23 08:33N 53°31' E 004°47'1717.6
2016-May-23 07:34N 53°37' E 005°14'1717.3
2016-May-23 06:33N 53°42' E 005°42'1818.1
2016-May-23 05:34N 53°48' E 006°11'1919.3
2016-May-23 04:33N 53°53' E 006°43'2019.7
2016-May-23 03:33N 53°57' E 007°16'1716.8
2016-May-23 02:33N 53°55' E 007°44'1515.4
2016-May-23 01:33N 53°49' E 008°08'1716.8
2016-May-23 00:33N 53°37' E 008°29'3 2.8
2016-May-22 23:32N 53°35' E 008°32'0 0.0
2016-May-22 22:32N 53°35' E 008°32'0 0.0
2016-May-22 21:32N 53°35' E 008°32'0 0.0
2016-May-22 20:32N 53°35' E 008°32'0 0.0
2016-May-22 19:32N 53°35' E 008°32'0 0.0
2016-May-22 18:32N 53°35' E 008°32'0 0.0
2016-May-22 17:29N 53°35' E 008°32'0 0.0
2016-May-22 16:32N 53°35' E 008°32'0 0.0
2016-May-22 15:32N 53°35' E 008°32'0 0.0
2016-May-22 14:32N 53°35' E 008°32'0 0.0
2016-May-22 13:32N 53°35' E 008°32'0 0.0
2016-May-22 12:32N 53°35' E 008°32'0 0.0
2016-May-22 11:32N 53°35' E 008°32'0 0.0
2016-May-22 10:32N 53°35' E 008°32'0 0.0
2016-May-22 09:32N 53°35' E 008°32'0 0.0
2016-May-22 08:32N 53°35' E 008°32'0 0.0
2016-May-22 07:32N 53°35' E 008°32'0 0.0
2016-May-22 06:32N 53°35' E 008°32'0 0.0
2016-May-22 05:32N 53°35' E 008°32'0 0.0
2016-May-22 04:32N 53°35' E 008°32'0 0.0
2016-May-22 03:32N 53°35' E 008°32'0 0.0
2016-May-22 02:32N 53°35' E 008°32'0 0.0
2016-May-22 01:32N 53°35' E 008°32'0 0.0
2016-May-22 00:32N 53°35' E 008°32'0 0.0
2016-May-21 23:32N 53°35' E 008°32'0 0.0
2016-May-21 22:32N 53°35' E 008°32'0 0.0
2016-May-21 21:32N 53°35' E 008°32'0 0.0
2016-May-21 20:32N 53°35' E 008°32'0 0.0
2016-May-21 19:32N 53°35' E 008°32'0 0.0
2016-May-21 18:29N 53°35' E 008°32'0 0.0
2016-May-21 17:32N 53°35' E 008°32'0 0.0
2016-May-21 16:32N 53°35' E 008°32'0 0.0
2016-May-21 15:32N 53°35' E 008°32'0 0.0
2016-May-21 14:32N 53°35' E 008°32'0 0.0
2016-May-21 13:32N 53°35' E 008°32'0 0.0
2016-May-21 12:32N 53°35' E 008°32'0 0.0
2016-May-21 11:32N 53°35' E 008°32'0 0.0
2016-May-21 10:32N 53°35' E 008°32'0 0.0
2016-May-21 09:32N 53°35' E 008°32'0 0.0
2016-May-21 08:32N 53°35' E 008°32'0 0.0
2016-May-21 07:32N 53°35' E 008°32'0 0.0
2016-May-21 06:32N 53°35' E 008°32'0 0.0
2016-May-21 05:32N 53°35' E 008°32'2 1.9
2016-May-21 04:33N 53°36' E 008°30'1211.6
2016-May-21 03:33N 53°44' E 008°15'1111.5
2016-May-21 02:33N 53°51' E 007°60'1111.1
2016-May-21 01:33N 53°53' E 007°41'9 9.4
2016-May-21 00:33N 53°53' E 007°25'1413.8
2016-May-20 23:33N 53°50' E 007°02'1413.6
2016-May-20 22:34N 53°47' E 006°40'8 7.7
2016-May-20 21:33N 53°45' E 006°27'1515.0
2016-May-20 20:33N 53°41' E 006°03'1515.3
2016-May-20 19:33N 53°36' E 005°39'1515.5
2016-May-20 18:33N 53°31' E 005°14'1615.7
2016-May-20 17:33N 53°25' E 004°50'1615.5
2016-May-20 16:30N 53°12' E 004°33'1515.9
2016-May-20 15:33N 52°59' E 004°19'1615.8
2016-May-20 14:33N 52°45' E 004°07'1817.0
2016-May-20 13:31N 52°33' E 003°47'4915.7
2016-May-20 10:22N 51°50' E 003°05'1112.8
2016-May-20 09:32N 51°41' E 003°12'1212.6
2016-May-20 08:33N 51°30' E 003°03'8 7.5
2016-May-20 07:33N 51°24' E 003°12'1413.9
2016-May-20 06:33N 51°25' E 003°34'9 9.4
2016-May-20 05:34N 51°21' E 003°48'1010.3
2016-May-20 04:33N 51°22' E 004°04'8 8.0
2016-May-20 03:34N 51°20' E 004°17'0 0.0
2016-May-20 02:32N 51°20' E 004°17'0 0.0
2016-May-20 01:31N 51°20' E 004°17'0 0.0
2016-May-20 00:33N 51°20' E 004°17'0 0.0
2016-May-19 23:34N 51°20' E 004°17'0 0.0
2016-May-19 22:34N 51°20' E 004°17'0 0.0
2016-May-19 21:34N 51°20' E 004°17'0 0.0
2016-May-19 20:31N 51°20' E 004°17'0 0.0
2016-May-19 19:34N 51°20' E 004°17'0 0.0
2016-May-19 18:33N 51°20' E 004°17'0 0.0
2016-May-19 17:31N 51°20' E 004°17'0 0.0
2016-May-19 16:33N 51°20' E 004°17'0 0.0
2016-May-19 15:34N 51°20' E 004°17'0 0.0
2016-May-19 14:33N 51°20' E 004°17'0 0.0
2016-May-19 13:31N 51°20' E 004°17'0 0.0
2016-May-19 12:32N 51°20' E 004°16'0 0.0
2016-May-19 11:34N 51°20' E 004°17'0 0.0
2016-May-19 10:33N 51°20' E 004°17'0 0.0
2016-May-19 09:34N 51°20' E 004°17'0 0.0
2016-May-19 08:32N 51°20' E 004°17'0 0.0
2016-May-19 07:34N 51°20' E 004°17'0 0.0
2016-May-19 06:34N 51°20' E 004°17'0 0.0
2016-May-19 05:32N 51°20' E 004°17'0 0.0
2016-May-19 04:32N 51°20' E 004°17'0 0.0
2016-May-19 03:33N 51°20' E 004°17'0 0.0
2016-May-19 02:33N 51°20' E 004°17'0 0.0
2016-May-19 01:34N 51°20' E 004°17'0 0.0
2016-May-19 00:34N 51°20' E 004°17'0 0.0
2016-May-18 23:34N 51°20' E 004°17'0 0.0
2016-May-18 22:33N 51°20' E 004°17'0 0.0
2016-May-18 21:31N 51°20' E 004°17'0 0.2
2016-May-18 20:33N 51°20' E 004°16'5 5.3
2016-May-18 19:33N 51°22' E 004°09'7 7.2
2016-May-18 18:33N 51°24' E 003°58'9 9.4
2016-May-18 17:33N 51°23' E 003°43'8 8.3
2016-May-18 16:33N 51°25' E 003°30'1211.8
2016-May-18 15:33N 51°24' E 003°11'1312.9
2016-May-18 14:33N 51°22' E 002°50'10 9.9
2016-May-18 13:33N 51°25' E 002°35'1 0.4
2016-May-18 11:33N 51°25' E 002°35'0 0.0
2016-May-18 08:15N 51°25' E 002°35'0 0.1
2016-May-18 07:33N 51°25' E 002°35'1 1.1
2016-May-18 06:33N 51°24' E 002°35'0 0.2
2016-May-18 05:30N 51°24' E 002°35'8 8.1
2016-May-18 04:34N 51°20' E 002°24'1818.2
2016-May-18 03:34N 51°12' E 001°58'1818.2
2016-May-18 02:34N 51°00' E 001°36'1918.6
2016-May-18 01:33N 50°43' E 001°24'4218.4
2016-May-17 23:16N 50°23' E 000°26'1318.2
2016-May-17 22:33N 50°19' E 000°07'1918.4
2016-May-17 21:31N 50°14' W 000°22'2018.8
2016-May-17 20:27N 50°11' W 000°53'1819.9
2016-May-17 19:32N 50°07' W 001°21'4621.2
2016-May-17 17:22N 49°53' W 002°29'1720.7
2016-May-17 16:33N 49°49' W 002°54'2020.3
2016-May-17 15:34N 49°41' W 003°23'4419.5
2016-May-17 13:18N 49°29' W 004°28'14443.4
2016-May-17 10:00N 49°06' W 008°06'4321.6 200 / 121019.510.8 1.016.012.416.0
2016-May-17 08:00N 49°06' W 007°00'3517.7 180 / 121019.710.8 1.014.012.215.0
2016-May-17 06:00N 49°06' W 007°54'3517.7 180 / 181019.410.8 0.514.111.915.0
2016-May-17 04:00N 49°06' W 008°48'62336.6 180 / 221019.310.8 0.514.111.715.0
2016-May-16 11:00N 40°36' W 017°12'475237.6 250 / 141022.110.8 1.018.014.616.0
2016-May-16 09:00N 48°30' W 018°00'8120.1 250 / 151022.0 5.4 1.015.013.216.0
2016-May-16 05:00N 48°18' W 020°00'20718.8 200 / 121021.210.8 1.015.012.315.0
2016-May-15 18:00N 47°30' W 025°00'   180 / 141022.510.8 0.519.512.416.0
Track history (hours):
 
Tides and Currents Weather Stations Pressure Air Temp Water Temp Dewpoint Dewpoint Depression Visibility Wind Speed Wind Dir Waves Ship Positions

St. Louis Express

Owner: Marine Transport Management, Inc C/O Crowley Ship Management, Jacksonville, FL. More information available from US FCC via Universal Licensing System.

Last reported at 2016-May-25 18:00 UTC. Time now 2016-May-26 02:51 UTC.
Position N 48°36' W 013°12'.

Type: Ship (hazmat cat D). MMSI: 367136680.

Wind from 070 at 22 knots

Waves 1.0 meters (3 feet), 2 second period

Barometer 1012.7 mb
Air temperature 13.2 ° C
Visibility: greater than 5.4 NM
Dewpoint 11.5 ° C
Water temperature 15.0 ° C

Date/timePositionNaut miles runAvg speedWind from/ knotsBaromVisibWave heightAir tempDewpointWater temp
2016-May-25 18:00N 48°36' W 013°12'14019.9 070 / 221012.7 5.4 1.013.211.515.0
2016-May-25 11:00N 48°54' W 009°42'2813.8 090 / 281013.9 2.2 2.014.011.215.0
2016-May-25 09:00N 48°54' W 009°00'16818.9 090 / 241014.1 2.2 2.514.011.215.0
2016-May-25 00:06N 49°29' W 004°48'1620.2
2016-May-24 23:18N 49°35' W 004°25'1519.6
2016-May-24 22:33N 49°41' W 004°04'1918.7
2016-May-24 21:33N 49°48' W 003°38'1817.8
2016-May-24 20:33N 49°55' W 003°13'1817.5
2016-May-24 19:33N 50°01' W 002°47'6019.4
2016-May-24 16:30N 50°24' W 001°21'1919.8
2016-May-24 15:33N 50°36' W 000°59'10 9.6
2016-May-24 14:34N 50°45' W 001°07'1010.0
2016-May-24 13:33N 50°51' W 001°20'6 6.0
2016-May-24 12:33N 50°54' W 001°27'0 0.1
2016-May-24 11:31N 50°54' W 001°27'0 0.0
2016-May-24 10:31N 50°54' W 001°27'0 0.0
2016-May-24 09:28N 50°54' W 001°27'0 0.0
2016-May-24 08:31N 50°54' W 001°27'0 0.0
2016-May-24 07:31N 50°54' W 001°27'0 0.0
2016-May-24 06:31N 50°54' W 001°27'0 0.0
2016-May-24 05:31N 50°54' W 001°27'0 0.0
2016-May-24 04:31N 50°54' W 001°27'0 0.0
2016-May-24 03:25N 50°54' W 001°27'4 4.3
2016-May-24 02:34N 50°52' W 001°23'1010.4
2016-May-24 01:33N 50°46' W 001°10'1111.2
2016-May-24 00:33N 50°39' W 000°55'1615.8
2016-May-23 23:34N 50°34' W 000°32'1817.5
2016-May-23 22:34N 50°31' W 000°04'1816.7
2016-May-23 21:30N 50°35' E 000°23'2017.9
2016-May-23 20:22N 50°44' E 000°51'1620.2
2016-May-23 19:34N 50°53' E 001°13'2121.3
2016-May-23 18:33N 51°08' E 001°37'3819.0
2016-May-23 16:34N 51°38' E 002°14'1917.5
2016-May-23 15:29N 51°52' E 002°34'3417.4
2016-May-23 13:33N 52°19' E 003°08'9318.7
2016-May-23 08:33N 53°31' E 004°47'1717.6
2016-May-23 07:34N 53°37' E 005°14'1717.3
2016-May-23 06:33N 53°42' E 005°42'1818.1
2016-May-23 05:34N 53°48' E 006°11'1919.3
2016-May-23 04:33N 53°53' E 006°43'2019.7
2016-May-23 03:33N 53°57' E 007°16'1716.8
2016-May-23 02:33N 53°55' E 007°44'1515.4
2016-May-23 01:33N 53°49' E 008°08'1716.8
2016-May-23 00:33N 53°37' E 008°29'3 2.8
2016-May-22 23:32N 53°35' E 008°32'0 0.0
2016-May-22 22:32N 53°35' E 008°32'0 0.0
2016-May-22 21:32N 53°35' E 008°32'0 0.0
2016-May-22 20:32N 53°35' E 008°32'0 0.0
2016-May-22 19:32N 53°35' E 008°32'0 0.0
2016-May-22 18:32N 53°35' E 008°32'0 0.0
2016-May-22 17:29N 53°35' E 008°32'0 0.0
2016-May-22 16:32N 53°35' E 008°32'0 0.0
2016-May-22 15:32N 53°35' E 008°32'0 0.0
2016-May-22 14:32N 53°35' E 008°32'0 0.0
2016-May-22 13:32N 53°35' E 008°32'0 0.0
2016-May-22 12:32N 53°35' E 008°32'0 0.0
2016-May-22 11:32N 53°35' E 008°32'0 0.0
2016-May-22 10:32N 53°35' E 008°32'0 0.0
2016-May-22 09:32N 53°35' E 008°32'0 0.0
2016-May-22 08:32N 53°35' E 008°32'0 0.0
2016-May-22 07:32N 53°35' E 008°32'0 0.0
2016-May-22 06:32N 53°35' E 008°32'0 0.0
2016-May-22 05:32N 53°35' E 008°32'0 0.0
2016-May-22 04:32N 53°35' E 008°32'0 0.0
2016-May-22 03:32N 53°35' E 008°32'0 0.0
2016-May-22 02:32N 53°35' E 008°32'0 0.0
2016-May-22 01:32N 53°35' E 008°32'0 0.0
2016-May-22 00:32N 53°35' E 008°32'0 0.0
2016-May-21 23:32N 53°35' E 008°32'0 0.0
2016-May-21 22:32N 53°35' E 008°32'0 0.0
2016-May-21 21:32N 53°35' E 008°32'0 0.0
2016-May-21 20:32N 53°35' E 008°32'0 0.0
2016-May-21 19:32N 53°35' E 008°32'0 0.0
2016-May-21 18:29N 53°35' E 008°32'0 0.0
2016-May-21 17:32N 53°35' E 008°32'0 0.0
2016-May-21 16:32N 53°35' E 008°32'0 0.0
2016-May-21 15:32N 53°35' E 008°32'0 0.0
2016-May-21 14:32N 53°35' E 008°32'0 0.0
2016-May-21 13:32N 53°35' E 008°32'0 0.0
2016-May-21 12:32N 53°35' E 008°32'0 0.0
2016-May-21 11:32N 53°35' E 008°32'0 0.0
2016-May-21 10:32N 53°35' E 008°32'0 0.0
2016-May-21 09:32N 53°35' E 008°32'0 0.0
2016-May-21 08:32N 53°35' E 008°32'0 0.0
2016-May-21 07:32N 53°35' E 008°32'0 0.0
2016-May-21 06:32N 53°35' E 008°32'0 0.0
2016-May-21 05:32N 53°35' E 008°32'2 1.9
2016-May-21 04:33N 53°36' E 008°30'1211.6
2016-May-21 03:33N 53°44' E 008°15'1111.5
2016-May-21 02:33N 53°51' E 007°60'1111.1
2016-May-21 01:33N 53°53' E 007°41'9 9.4
2016-May-21 00:33N 53°53' E 007°25'1413.8
2016-May-20 23:33N 53°50' E 007°02'1413.6
2016-May-20 22:34N 53°47' E 006°40'8 7.7
2016-May-20 21:33N 53°45' E 006°27'1515.0
2016-May-20 20:33N 53°41' E 006°03'1515.3
2016-May-20 19:33N 53°36' E 005°39'1515.5
2016-May-20 18:33N 53°31' E 005°14'1615.7
2016-May-20 17:33N 53°25' E 004°50'1615.5
2016-May-20 16:30N 53°12' E 004°33'1515.9
2016-May-20 15:33N 52°59' E 004°19'1615.8
2016-May-20 14:33N 52°45' E 004°07'1817.0
2016-May-20 13:31N 52°33' E 003°47'4915.7
2016-May-20 10:22N 51°50' E 003°05'1112.8
2016-May-20 09:32N 51°41' E 003°12'1212.6
2016-May-20 08:33N 51°30' E 003°03'8 7.5
2016-May-20 07:33N 51°24' E 003°12'1413.9
2016-May-20 06:33N 51°25' E 003°34'9 9.4
2016-May-20 05:34N 51°21' E 003°48'1010.3
2016-May-20 04:33N 51°22' E 004°04'8 8.0
2016-May-20 03:34N 51°20' E 004°17'0 0.0
2016-May-20 02:32N 51°20' E 004°17'0 0.0
2016-May-20 01:31N 51°20' E 004°17'0 0.0
2016-May-20 00:33N 51°20' E 004°17'0 0.0
2016-May-19 23:34N 51°20' E 004°17'0 0.0
2016-May-19 22:34N 51°20' E 004°17'0 0.0
2016-May-19 21:34N 51°20' E 004°17'0 0.0
2016-May-19 20:31N 51°20' E 004°17'0 0.0
2016-May-19 19:34N 51°20' E 004°17'0 0.0
2016-May-19 18:33N 51°20' E 004°17'0 0.0
2016-May-19 17:31N 51°20' E 004°17'0 0.0
2016-May-19 16:33N 51°20' E 004°17'0 0.0
2016-May-19 15:34N 51°20' E 004°17'0 0.0
2016-May-19 14:33N 51°20' E 004°17'0 0.0
2016-May-19 13:31N 51°20' E 004°17'0 0.0
2016-May-19 12:32N 51°20' E 004°16'0 0.0
2016-May-19 11:34N 51°20' E 004°17'0 0.0
2016-May-19 10:33N 51°20' E 004°17'0 0.0
2016-May-19 09:34N 51°20' E 004°17'0 0.0
2016-May-19 08:32N 51°20' E 004°17'0 0.0
2016-May-19 07:34N 51°20' E 004°17'0 0.0
2016-May-19 06:34N 51°20' E 004°17'0 0.0
2016-May-19 05:32N 51°20' E 004°17'0 0.0
2016-May-19 04:32N 51°20' E 004°17'0 0.0
2016-May-19 03:33N 51°20' E 004°17'0 0.0
2016-May-19 02:33N 51°20' E 004°17'0 0.0
2016-May-19 01:34N 51°20' E 004°17'0 0.0
2016-May-19 00:34N 51°20' E 004°17'0 0.0
2016-May-18 23:34N 51°20' E 004°17'0 0.0
2016-May-18 22:33N 51°20' E 004°17'0 0.0
2016-May-18 21:31N 51°20' E 004°17'0 0.2
2016-May-18 20:33N 51°20' E 004°16'5 5.3
2016-May-18 19:33N 51°22' E 004°09'7 7.2
2016-May-18 18:33N 51°24' E 003°58'9 9.4
2016-May-18 17:33N 51°23' E 003°43'8 8.3
2016-May-18 16:33N 51°25' E 003°30'1211.8
2016-May-18 15:33N 51°24' E 003°11'1312.9
2016-May-18 14:33N 51°22' E 002°50'10 9.9
2016-May-18 13:33N 51°25' E 002°35'1 0.4
2016-May-18 11:33N 51°25' E 002°35'0 0.0
2016-May-18 08:15N 51°25' E 002°35'0 0.1
2016-May-18 07:33N 51°25' E 002°35'1 1.1
2016-May-18 06:33N 51°24' E 002°35'0 0.2
2016-May-18 05:30N 51°24' E 002°35'8 8.1
2016-May-18 04:34N 51°20' E 002°24'1818.2
2016-May-18 03:34N 51°12' E 001°58'1818.2
2016-May-18 02:34N 51°00' E 001°36'1918.6
2016-May-18 01:33N 50°43' E 001°24'4218.4
2016-May-17 23:16N 50°23' E 000°26'1318.2
2016-May-17 22:33N 50°19' E 000°07'1918.4
2016-May-17 21:31N 50°14' W 000°22'2018.8
2016-May-17 20:27N 50°11' W 000°53'1819.9
2016-May-17 19:32N 50°07' W 001°21'4621.2
2016-May-17 17:22N 49°53' W 002°29'1720.7
2016-May-17 16:33N 49°49' W 002°54'2020.3
2016-May-17 15:34N 49°41' W 003°23'4419.5
2016-May-17 13:18N 49°29' W 004°28'14443.4
2016-May-17 10:00N 49°06' W 008°06'4321.6 200 / 121019.510.8 1.016.012.416.0
2016-May-17 08:00N 49°06' W 007°00'3517.7 180 / 121019.710.8 1.014.012.215.0
2016-May-17 06:00N 49°06' W 007°54'3517.7 180 / 181019.410.8 0.514.111.915.0
2016-May-17 04:00N 49°06' W 008°48'62336.6 180 / 221019.310.8 0.514.111.715.0
2016-May-16 11:00N 40°36' W 017°12'475237.6 250 / 141022.110.8 1.018.014.616.0
2016-May-16 09:00N 48°30' W 018°00'8120.1 250 / 151022.0 5.4 1.015.013.216.0
2016-May-16 05:00N 48°18' W 020°00'20718.8 200 / 121021.210.8 1.015.012.315.0
2016-May-15 18:00N 47°30' W 025°00'   180 / 141022.510.8 0.519.512.416.0

Dump ship's entire track history